Fontana, California
Current Conditions -  °F | °C
As of 7:53 PM on Sunday 25 Jan 2015 (Local Time) from KONT Reporting Station
Broken Clouds Broken Clouds  
Wind Chill: 65°   Ceiling: 23000
Heat Index: 65°   Visibility: 10mi
Dew Point: 29°   Wind: 6mph
Humidity: 26%   Direction: 270°W
Pressure: 30.05"   Gusts: NA
Location:  34.1°N, 117.43°W
Report Text: KONT 260353Z 27005KT 10SM SCT180 BKN230 18/M02 A3005 RMK AO2 SLP166 T01831017
Loading
Personal Weather Stations






























Interactive Weather Map New forecast layout! Learn more

10-Day Weather Forecast

Advertisements
Track Severe Weather on mobile